Time;durP1;ratioP1;P1;durP2;ratioP2;P2;SDS_P1;SDS_P2;PMS_P1;PMS_P2;Temp;Humidity;BMP_temperature;BMP_pressure;BME280_temperature;BME280_humidity;BME280_pressure;Samples;Min_cycle;Max_cycle;Signal;HPM_P1;HPM_P2
2022/11/09 00:01:28;;;;;;;30.02;25.73;;;8.50;99.90;;;;;;4975204;28;20227;-92
2022/11/09 00:03:58;;;;;;;35.92;25.55;;;8.50;99.90;;;;;;4975269;28;20263;-92
2022/11/09 00:06:28;;;;;;;34.72;26.27;;;8.50;99.90;;;;;;4975137;28;20233;-92
2022/11/09 00:08:57;;;;;;;39.78;28.20;;;8.60;99.90;;;;;;4975521;28;20212;-92
2022/11/09 00:11:34;;;;;;;49.15;26.83;;;8.50;99.90;;;;;;4975001;28;20208;-92
2022/11/09 00:14:03;;;;;;;38.80;26.38;;;8.50;99.90;;;;;;4975345;28;20228;-93
2022/11/09 00:16:31;;;;;;;35.53;26.02;;;8.50;99.90;;;;;;4974952;28;20216;-92
2022/11/09 00:18:59;;;;;;;34.92;26.70;;;8.50;99.90;;;;;;4976071;28;20205;-90
2022/11/09 00:21:27;;;;;;;32.33;25.90;;;8.60;99.90;;;;;;4979112;28;20223;-92
2022/11/09 00:23:56;;;;;;;40.85;26.70;;;8.60;99.90;;;;;;4975624;28;20224;-92
2022/11/09 00:26:25;;;;;;;33.53;25.55;;;8.60;99.90;;;;;;4975085;28;20230;-92
2022/11/09 00:28:54;;;;;;;41.50;26.85;;;8.50;99.90;;;;;;4974608;28;20218;-92
2022/11/09 00:31:24;;;;;;;41.72;26.05;;;8.50;99.90;;;;;;4974922;28;20212;-93
2022/11/09 00:33:54;;;;;;;41.13;28.02;;;8.60;99.90;;;;;;4974693;28;20225;-91
2022/11/09 00:36:24;;;;;;;33.05;25.55;;;8.50;99.90;;;;;;4974893;28;20208;-92
2022/11/09 00:38:53;;;;;;;38.78;26.33;;;8.50;99.90;;;;;;4974702;28;20227;-94
2022/11/09 00:41:22;;;;;;;36.80;26.52;;;8.50;99.90;;;;;;4974101;28;20218;-92
2022/11/09 00:43:52;;;;;;;41.47;26.10;;;8.50;99.90;;;;;;4974598;28;20232;-92
2022/11/09 00:46:22;;;;;;;40.25;27.85;;;8.50;99.90;;;;;;4974268;28;20313;-92
2022/11/09 00:48:50;;;;;;;41.50;27.42;;;8.50;99.90;;;;;;4974647;28;20261;-92
2022/11/09 00:51:19;;;;;;;40.47;28.45;;;8.60;99.90;;;;;;4976859;28;20212;-92
2022/11/09 00:53:52;;;;;;;42.55;27.95;;;8.60;99.90;;;;;;4976277;28;20231;-92
2022/11/09 00:56:21;;;;;;;39.22;27.63;;;8.60;99.90;;;;;;4976867;28;20205;-93
2022/11/09 00:58:53;;;;;;;38.95;29.85;;;8.60;99.90;;;;;;4975971;28;20208;-93
2022/11/09 01:01:23;;;;;;;38.22;26.70;;;8.60;99.90;;;;;;4976771;28;20208;-93
2022/11/09 01:03:52;;;;;;;45.22;27.02;;;8.60;99.90;;;;;;4976548;28;20462;-93
2022/11/09 01:06:23;;;;;;;39.08;27.88;;;8.70;99.90;;;;;;4976324;28;20235;-93
2022/11/09 01:08:51;;;;;;;61.13;30.42;;;8.60;99.90;;;;;;4976311;28;20211;-92
2022/11/09 01:11:21;;;;;;;46.97;29.38;;;8.60;99.90;;;;;;4976440;28;20216;-92
2022/11/09 01:13:50;;;;;;;39.08;27.95;;;8.70;99.90;;;;;;4976402;28;20267;-93
2022/11/09 01:16:21;;;;;;;49.85;28.48;;;8.60;99.90;;;;;;4976597;28;20204;-93
2022/11/09 01:18:54;;;;;;;39.70;27.13;;;8.70;99.90;;;;;;4976003;28;20223;-93
2022/11/09 01:21:23;;;;;;;44.83;28.85;;;8.60;99.90;;;;;;4976100;28;20208;-93
2022/11/09 01:23:51;;;;;;;35.47;28.33;;;8.70;99.90;;;;;;4976304;28;20228;-92
2022/11/09 01:26:20;;;;;;;41.67;29.63;;;8.70;99.90;;;;;;4976057;28;20229;-93
2022/11/09 01:28:48;;;;;;;44.75;29.40;;;8.60;99.90;;;;;;4975955;28;20223;-93
2022/11/09 01:31:19;;;;;;;36.83;29.20;;;8.70;99.90;;;;;;4975921;28;20287;-93
2022/11/09 01:33:47;;;;;;;36.15;28.10;;;8.70;99.90;;;;;;4975788;28;20233;-92
2022/11/09 01:36:19;;;;;;;50.35;30.42;;;8.70;99.90;;;;;;4975918;28;20204;-92
2022/11/09 01:38:49;;;;;;;47.85;30.23;;;8.80;99.90;;;;;;4976098;28;20216;-92
2022/11/09 01:41:22;;;;;;;43.13;30.17;;;8.80;99.90;;;;;;4976032;28;20208;-92
2022/11/09 01:44:08;;;;;;;45.95;29.83;;;8.80;99.90;;;;;;4975810;28;20240;-93
2022/11/09 01:46:43;;;;;;;38.42;28.92;;;8.70;99.90;;;;;;4975331;28;20224;-93
2022/11/09 01:49:15;;;;;;;45.20;30.48;;;8.70;99.90;;;;;;4975624;28;20212;-92
2022/11/09 01:51:49;;;;;;;39.80;29.88;;;8.80;99.90;;;;;;4975800;28;20307;-93
2022/11/09 01:54:20;;;;;;;46.92;31.05;;;8.80;99.90;;;;;;4980171;28;20231;-91
2022/11/09 01:56:52;;;;;;;48.38;31.58;;;8.80;99.90;;;;;;4978687;28;20193;-94
2022/11/09 01:59:24;;;;;;;59.08;31.73;;;8.90;99.90;;;;;;4975396;28;20208;-94
2022/11/09 02:01:53;;;;;;;44.25;28.15;;;8.80;99.90;;;;;;4975848;28;20208;-93
2022/11/09 02:04:24;;;;;;;45.95;31.95;;;8.90;99.90;;;;;;4975139;28;20250;-93
2022/11/09 02:06:56;;;;;;;39.83;29.52;;;9.00;99.90;;;;;;4974793;28;20232;-93
2022/11/09 02:09:29;;;;;;;44.55;30.48;;;8.90;99.90;;;;;;4975870;28;20222;-93
2022/11/09 02:11:58;;;;;;;44.95;32.20;;;8.90;99.90;;;;;;4975558;28;20204;-92
2022/11/09 02:14:28;;;;;;;49.80;30.33;;;8.90;99.90;;;;;;4975170;28;20228;-92
2022/11/09 02:16:56;;;;;;;43.15;31.77;;;8.90;99.90;;;;;;4975651;28;20195;-93
2022/11/09 02:19:24;;;;;;;46.90;30.92;;;8.90;99.90;;;;;;4975219;28;20209;-92
2022/11/09 02:21:54;;;;;;;43.92;30.25;;;8.90;99.90;;;;;;4975579;28;20200;-92
2022/11/09 02:24:23;;;;;;;45.28;31.13;;;8.90;99.90;;;;;;4975235;28;20229;-93
2022/11/09 02:26:53;;;;;;;42.55;31.42;;;8.90;99.90;;;;;;4975000;28;20220;-92
2022/11/09 02:29:25;;;;;;;60.90;31.42;;;8.90;99.90;;;;;;4974846;28;20208;-93
2022/11/09 02:31:56;;;;;;;40.50;28.50;;;8.90;99.90;;;;;;4975078;28;20209;-93
2022/11/09 02:34:25;;;;;;;49.35;31.20;;;8.90;99.90;;;;;;4975241;28;20220;-92
2022/11/09 02:36:54;;;;;;;45.40;31.02;;;8.90;99.90;;;;;;4975261;28;20208;-92
2022/11/09 02:39:26;;;;;;;47.22;32.63;;;8.90;99.90;;;;;;4974802;28;20208;-93
2022/11/09 02:41:59;;;;;;;45.10;29.80;;;8.90;99.90;;;;;;4974568;28;20212;-93
2022/11/09 02:44:35;;;;;;;48.25;29.85;;;8.90;99.90;;;;;;4974772;28;20232;-92
2022/11/09 02:47:03;;;;;;;52.22;29.75;;;9.00;99.90;;;;;;4979459;28;20250;-93
2022/11/09 02:49:31;;;;;;;43.53;29.55;;;8.90;99.90;;;;;;4975822;28;20205;-93
2022/11/09 02:52:01;;;;;;;49.25;30.50;;;8.90;99.90;;;;;;4974632;28;20206;-93
2022/11/09 02:54:29;;;;;;;42.35;29.35;;;8.90;99.90;;;;;;4974146;28;20232;-93
2022/11/09 02:56:58;;;;;;;45.38;29.60;;;9.00;99.90;;;;;;4974621;28;20211;-93
2022/11/09 02:59:26;;;;;;;45.65;28.75;;;8.90;99.90;;;;;;4974580;28;20211;-92
2022/11/09 03:01:54;;;;;;;53.08;30.35;;;8.90;99.90;;;;;;4974887;28;20208;-92
2022/11/09 03:04:24;;;;;;;43.58;30.08;;;8.90;99.90;;;;;;4974376;28;20303;-93
2022/11/09 03:06:52;;;;;;;42.25;30.70;;;8.90;99.90;;;;;;4973992;28;20235;-93
2022/11/09 03:09:22;;;;;;;49.97;30.27;;;8.90;99.90;;;;;;4974441;28;20240;-93
2022/11/09 03:11:50;;;;;;;35.13;27.52;;;8.90;99.90;;;;;;4974454;28;20212;-93
2022/11/09 03:14:19;;;;;;;44.63;30.10;;;8.90;99.90;;;;;;4974436;28;20337;-93
2022/11/09 03:16:47;;;;;;;45.88;29.13;;;8.90;99.90;;;;;;4974039;28;20211;-93
2022/11/09 03:19:17;;;;;;;39.88;29.90;;;8.90;99.90;;;;;;4974076;28;20205;-93
2022/11/09 03:21:46;;;;;;;37.78;28.55;;;8.90;99.90;;;;;;4974084;28;20224;-93
2022/11/09 03:24:14;;;;;;;41.08;28.88;;;8.90;99.90;;;;;;4974236;28;20228;-92
2022/11/09 03:26:43;;;;;;;42.72;29.67;;;8.90;99.90;;;;;;4974192;28;20205;-93
2022/11/09 03:29:12;;;;;;;40.42;27.65;;;8.90;99.90;;;;;;4974161;28;20212;-93
2022/11/09 03:31:40;;;;;;;62.70;28.98;;;8.90;99.90;;;;;;4974209;28;20239;-93
2022/11/09 03:34:08;;;;;;;50.65;29.55;;;8.90;99.90;;;;;;4973876;28;20228;-93
2022/11/09 03:36:37;;;;;;;40.15;27.08;;;8.90;99.90;;;;;;4974132;28;20211;-93
2022/11/09 03:39:05;;;;;;;36.35;28.08;;;8.90;99.90;;;;;;4974280;28;20204;-93
2022/11/09 03:41:34;;;;;;;43.10;28.42;;;8.90;99.90;;;;;;4974399;28;20216;-93
2022/11/09 03:44:04;;;;;;;42.20;26.90;;;8.90;99.90;;;;;;4974055;28;20228;-91
2022/11/09 03:46:32;;;;;;;47.85;28.38;;;8.90;99.90;;;;;;4973580;28;20205;-93
2022/11/09 03:49:00;;;;;;;35.97;27.00;;;8.90;99.90;;;;;;4973303;28;20228;-92
2022/11/09 03:51:29;;;;;;;38.85;26.98;;;8.90;99.90;;;;;;4974080;28;20232;-93
2022/11/09 03:53:57;;;;;;;37.88;27.80;;;8.90;99.90;;;;;;4974177;28;20224;-92
2022/11/09 03:56:25;;;;;;;37.97;27.02;;;8.90;99.90;;;;;;4973886;28;20355;-93
2022/11/09 03:58:54;;;;;;;36.67;27.13;;;8.90;99.90;;;;;;4974085;28;20219;-93
2022/11/09 04:01:23;;;;;;;40.55;26.10;;;8.90;99.90;;;;;;4973928;28;20232;-93
2022/11/09 04:03:52;;;;;;;38.85;28.48;;;8.90;99.90;;;;;;4973632;28;20237;-93
2022/11/09 04:06:20;;;;;;;42.95;29.13;;;9.00;99.90;;;;;;4973898;28;20245;-92
2022/11/09 04:08:49;;;;;;;38.65;29.50;;;9.00;99.90;;;;;;4973354;28;20224;-93
2022/11/09 04:11:18;;;;;;;41.28;28.75;;;9.00;99.90;;;;;;4973586;28;20291;-93
2022/11/09 04:13:47;;;;;;;38.08;26.65;;;9.00;99.90;;;;;;4973263;28;20224;-92
2022/11/09 04:16:15;;;;;;;39.20;27.02;;;9.00;99.90;;;;;;4973770;28;20209;-93
2022/11/09 04:18:45;;;;;;;52.38;28.33;;;9.00;99.90;;;;;;4973232;28;20211;-93
2022/11/09 04:21:13;;;;;;;45.63;28.27;;;9.00;99.90;;;;;;4973872;28;20235;-93
2022/11/09 04:23:41;;;;;;;38.63;27.20;;;9.00;99.90;;;;;;4973064;28;20228;-93
2022/11/09 04:26:10;;;;;;;36.10;27.75;;;9.00;99.90;;;;;;4973329;28;20209;-93
2022/11/09 04:28:38;;;;;;;40.28;28.13;;;9.00;99.90;;;;;;4974350;28;20225;-93
2022/11/09 04:31:06;;;;;;;43.60;26.67;;;9.10;99.90;;;;;;4976761;28;20223;-93
2022/11/09 04:33:34;;;;;;;62.20;29.70;;;9.00;99.90;;;;;;4976937;28;20231;-93
2022/11/09 04:36:05;;;;;;;41.70;28.58;;;9.10;99.90;;;;;;4977095;28;20201;-93
2022/11/09 04:38:35;;;;;;;38.40;29.50;;;9.10;99.90;;;;;;4976630;28;20204;-93
2022/11/09 04:41:04;;;;;;;46.80;27.02;;;9.20;99.90;;;;;;4977258;28;20299;-93
2022/11/09 04:43:32;;;;;;;45.22;29.10;;;9.20;99.90;;;;;;4977010;28;20232;-92
2022/11/09 04:46:01;;;;;;;45.08;29.15;;;9.20;99.90;;;;;;4976767;28;20215;-93
2022/11/09 04:48:30;;;;;;;39.08;29.40;;;9.30;99.90;;;;;;4976290;28;20224;-93
2022/11/09 04:51:02;;;;;;;40.85;32.00;;;9.20;99.90;;;;;;4976793;28;20218;-93
2022/11/09 04:53:32;;;;;;;46.92;31.60;;;9.20;99.90;;;;;;4976712;28;20232;-92
2022/11/09 04:56:01;;;;;;;37.47;28.35;;;9.30;99.90;;;;;;4976685;28;20212;-93
2022/11/09 04:58:29;;;;;;;38.97;29.40;;;9.20;99.90;;;;;;4976240;28;20204;-93
2022/11/09 05:01:02;;;;;;;42.28;29.48;;;9.20;99.90;;;;;;4976532;28;20215;-93
2022/11/09 05:03:31;;;;;;;32.65;28.08;;;9.20;99.90;;;;;;4976540;28;20319;-93
2022/11/09 05:05:59;;;;;;;37.70;29.02;;;9.20;99.90;;;;;;4976545;28;20212;-93
2022/11/09 05:08:28;;;;;;;41.72;29.70;;;9.20;99.90;;;;;;4976144;28;20231;-92
2022/11/09 05:10:58;;;;;;;40.15;29.23;;;9.20;99.90;;;;;;4976273;28;20212;-93
2022/11/09 05:13:26;;;;;;;41.72;30.25;;;9.20;99.90;;;;;;4976445;28;20228;-93
2022/11/09 05:15:55;;;;;;;47.33;29.77;;;9.20;99.90;;;;;;4981606;28;20204;-93
2022/11/09 05:18:23;;;;;;;39.47;27.85;;;9.30;99.90;;;;;;4977081;28;20215;-93
2022/11/09 05:20:51;;;;;;;32.78;27.92;;;9.20;99.90;;;;;;4976163;28;20211;-93
2022/11/09 05:26:06;;;;;;;52.75;28.90;;;9.20;99.90;;;;;;4976279;28;20217;-93
2022/11/09 05:28:34;;;;;;;44.13;30.08;;;9.20;99.90;;;;;;4975890;28;20239;-93
2022/11/09 05:31:03;;;;;;;43.08;29.17;;;9.20;99.90;;;;;;4976018;28;20209;-92
2022/11/09 05:33:31;;;;;;;39.25;27.02;;;9.20;99.90;;;;;;4976179;28;20232;-93
2022/11/09 05:36:00;;;;;;;38.60;28.33;;;9.20;99.90;;;;;;4975856;28;20224;-93
2022/11/09 05:38:28;;;;;;;38.45;27.48;;;9.20;99.90;;;;;;4975747;28;20205;-93
2022/11/09 05:40:56;;;;;;;33.50;27.15;;;9.20;99.90;;;;;;4974863;28;20208;-92
2022/11/09 05:43:26;;;;;;;39.35;30.75;;;9.20;99.90;;;;;;4975749;28;20242;-93
2022/11/09 05:45:54;;;;;;;34.42;27.95;;;9.20;99.90;;;;;;4975952;28;20208;-93
2022/11/09 05:48:22;;;;;;;35.63;26.13;;;9.10;99.90;;;;;;4975225;28;20226;-92
2022/11/09 05:50:51;;;;;;;41.47;26.85;;;9.10;99.90;;;;;;4975746;28;20206;-93
2022/11/09 05:53:19;;;;;;;42.42;28.27;;;9.10;99.90;;;;;;4975813;28;20315;-93
2022/11/09 05:55:48;;;;;;;32.08;26.45;;;9.10;99.90;;;;;;4975604;28;20216;-93
2022/11/09 05:58:16;;;;;;;39.47;27.80;;;9.10;99.90;;;;;;4975265;28;20236;-92
2022/11/09 06:00:46;;;;;;;37.45;27.30;;;9.10;99.90;;;;;;4975372;28;20216;-93
2022/11/09 06:03:14;;;;;;;46.67;28.50;;;9.20;99.90;;;;;;4975638;28;20243;-92
2022/11/09 06:05:43;;;;;;;33.45;25.85;;;9.10;99.90;;;;;;4975582;28;20219;-92
2022/11/09 06:08:15;;;;;;;56.65;27.58;;;9.10;99.90;;;;;;4975435;28;20213;-93
2022/11/09 06:10:43;;;;;;;31.25;24.52;;;9.20;99.90;;;;;;4975983;28;20205;-93
2022/11/09 06:13:12;;;;;;;50.55;25.13;;;9.20;99.90;;;;;;4976377;28;20226;-93
2022/11/09 06:15:40;;;;;;;32.35;24.45;;;9.10;99.90;;;;;;4976412;28;20283;-92
2022/11/09 06:18:10;;;;;;;35.88;25.98;;;9.10;99.90;;;;;;4975884;28;20208;-93
2022/11/09 06:20:38;;;;;;;27.13;23.55;;;9.10;99.90;;;;;;4975279;28;20204;-93
2022/11/09 06:23:06;;;;;;;38.08;24.35;;;9.10;99.90;;;;;;4975316;28;20232;-92
2022/11/09 06:25:34;;;;;;;32.88;24.50;;;9.10;99.90;;;;;;4975038;28;20208;-93
2022/11/09 06:28:03;;;;;;;46.53;25.70;;;9.10;99.90;;;;;;4974989;28;20218;-93
2022/11/09 06:30:31;;;;;;;39.22;25.85;;;9.00;99.90;;;;;;4974602;28;20224;-92
2022/11/09 06:33:00;;;;;;;33.45;24.30;;;9.10;99.90;;;;;;4974965;28;20239;-92
2022/11/09 06:35:30;;;;;;;37.63;24.30;;;9.00;99.90;;;;;;4975144;28;20222;-92
2022/11/09 06:37:59;;;;;;;32.72;23.83;;;9.00;99.90;;;;;;4974686;28;20208;-93
2022/11/09 06:40:28;;;;;;;33.78;25.55;;;9.00;99.90;;;;;;4974873;28;20212;-92
2022/11/09 06:42:58;;;;;;;37.00;25.15;;;9.10;99.90;;;;;;4974808;28;20228;-92
2022/11/09 06:45:28;;;;;;;32.95;25.40;;;9.00;99.90;;;;;;4974941;28;20204;-93
2022/11/09 06:47:57;;;;;;;40.30;26.95;;;9.00;99.90;;;;;;4974262;28;20208;-92
2022/11/09 06:50:26;;;;;;;40.92;27.73;;;9.00;99.90;;;;;;4974518;28;20231;-92
2022/11/09 06:52:58;;;;;;;41.38;25.38;;;9.00;99.90;;;;;;4974503;28;20235;-93
2022/11/09 06:55:27;;;;;;;37.13;25.55;;;9.00;99.90;;;;;;4979604;28;20209;-92
2022/11/09 06:57:55;;;;;;;28.40;23.17;;;8.90;99.90;;;;;;4976419;28;20219;-93
2022/11/09 07:00:25;;;;;;;33.97;25.02;;;9.00;99.90;;;;;;4974586;28;20227;-92
2022/11/09 07:02:53;;;;;;;38.72;25.20;;;9.00;99.90;;;;;;4973972;28;20228;-93
2022/11/09 07:05:22;;;;;;;35.25;24.95;;;8.90;99.90;;;;;;4974609;28;20212;-93
2022/11/09 07:07:50;;;;;;;32.85;23.30;;;8.90;99.90;;;;;;4973924;28;20208;-92
2022/11/09 07:10:20;;;;;;;33.35;24.30;;;9.00;99.90;;;;;;4974163;28;20232;-93
2022/11/09 07:12:48;;;;;;;32.17;23.92;;;9.00;99.90;;;;;;4974299;28;20228;-93
2022/11/09 07:15:17;;;;;;;31.42;24.42;;;8.90;99.90;;;;;;4974055;28;20204;-93
2022/11/09 07:17:45;;;;;;;32.80;24.50;;;8.90;99.90;;;;;;4974098;28;20259;-92
2022/11/09 07:20:14;;;;;;;39.30;25.15;;;9.00;99.90;;;;;;4974114;28;20200;-93
2022/11/09 07:22:42;;;;;;;30.95;24.27;;;8.90;99.90;;;;;;4974057;28;20227;-92
2022/11/09 07:25:12;;;;;;;32.13;24.10;;;8.90;99.90;;;;;;4974017;28;20220;-92
2022/11/09 07:27:42;;;;;;;28.23;22.98;;;8.90;99.90;;;;;;4973897;28;20212;-93
2022/11/09 07:30:12;;;;;;;30.88;21.83;;;8.90;99.90;;;;;;4973865;28;20239;-93
2022/11/09 07:32:41;;;;;;;26.70;21.42;;;8.90;99.90;;;;;;4973852;28;20299;-92
2022/11/09 07:35:29;;;;;;;30.02;22.42;;;9.00;99.90;;;;;;4979129;28;20204;-92
2022/11/09 07:38:01;;;;;;;30.92;22.65;;;9.00;99.90;;;;;;4974946;28;20219;-92
2022/11/09 07:40:30;;;;;;;29.25;21.15;;;9.10;99.90;;;;;;4974755;28;20204;-93
2022/11/09 07:43:01;;;;;;;24.55;20.13;;;9.10;99.90;;;;;;4974055;28;20310;-93
2022/11/09 07:45:29;;;;;;;30.75;22.88;;;9.10;99.90;;;;;;4974235;28;20221;-93
2022/11/09 07:47:59;;;;;;;36.72;21.40;;;9.10;99.90;;;;;;4972211;28;20222;-93
2022/11/09 07:50:28;;;;;;;25.35;22.08;;;9.10;99.90;;;;;;4973853;28;20220;-93
2022/11/09 07:52:57;;;;;;;34.80;23.98;;;9.10;99.90;;;;;;4974337;28;20225;-92
2022/11/09 07:55:26;;;;;;;33.05;22.00;;;9.10;99.90;;;;;;4974335;28;20216;-92
2022/11/09 07:57:57;;;;;;;27.90;20.85;;;9.00;99.90;;;;;;4973928;28;20204;-92
2022/11/09 08:00:29;;;;;;;26.85;20.30;;;9.10;99.90;;;;;;4973803;28;20201;-92
2022/11/09 08:02:57;;;;;;;28.50;20.67;;;9.00;99.90;;;;;;4974155;28;20239;-93
2022/11/09 08:05:26;;;;;;;24.83;19.83;;;9.10;99.90;;;;;;4978125;28;20204;-92
2022/11/09 08:07:56;;;;;;;25.42;19.70;;;9.10;99.90;;;;;;4977895;28;20208;-93
2022/11/09 08:10:24;;;;;;;32.33;21.67;;;9.10;99.90;;;;;;4977758;28;20228;-93
2022/11/09 08:12:54;;;;;;;25.40;21.38;;;9.10;99.90;;;;;;4977761;28;20258;-93
2022/11/09 08:15:23;;;;;;;36.88;21.52;;;9.10;99.90;;;;;;4977613;28;20204;-93
2022/11/09 08:17:53;;;;;;;25.45;18.58;;;9.10;99.90;;;;;;4977177;28;20208;-93
2022/11/09 08:20:21;;;;;;;28.65;22.15;;;9.00;99.90;;;;;;4974625;28;20200;-93
2022/11/09 08:22:50;;;;;;;33.17;21.77;;;9.00;99.90;;;;;;4974569;28;20246;-93
2022/11/09 08:25:18;;;;;;;29.45;22.08;;;8.90;99.90;;;;;;4975163;28;20231;-92
2022/11/09 08:27:47;;;;;;;24.33;20.02;;;8.90;99.90;;;;;;4975091;28;20216;-93
2022/11/09 08:30:17;;;;;;;23.25;19.45;;;9.00;99.90;;;;;;4975220;28;20232;-92
2022/11/09 08:32:46;;;;;;;28.38;21.80;;;8.90;99.90;;;;;;4974860;28;20213;-93
2022/11/09 08:35:19;;;;;;;23.77;20.13;;;9.00;99.90;;;;;;4974955;28;20221;-93
2022/11/09 08:37:49;;;;;;;40.83;22.88;;;9.00;99.90;;;;;;4974815;28;20220;-93
2022/11/09 08:40:20;;;;;;;38.90;23.58;;;9.00;99.90;;;;;;4974898;28;20200;-93
2022/11/09 08:42:48;;;;;;;26.00;20.98;;;9.00;99.90;;;;;;4974892;28;20232;-92
2022/11/09 08:45:17;;;;;;;35.60;21.02;;;9.00;99.90;;;;;;4975200;28;20218;-93
2022/11/09 08:47:46;;;;;;;31.90;21.80;;;8.90;99.90;;;;;;4974474;28;20216;-93
2022/11/09 08:50:16;;;;;;;28.60;21.27;;;9.00;99.90;;;;;;4974688;28;20235;-92
2022/11/09 08:52:44;;;;;;;36.90;21.85;;;8.90;99.90;;;;;;4974765;28;20218;-93
2022/11/09 08:55:12;;;;;;;33.10;20.33;;;8.90;99.90;;;;;;4974508;28;20217;-92
2022/11/09 08:57:41;;;;;;;30.00;21.10;;;8.90;99.90;;;;;;4974591;28;20224;-93
2022/11/09 09:00:10;;;;;;;22.30;19.00;;;8.90;99.90;;;;;;4974856;28;20219;-92
2022/11/09 09:02:38;;;;;;;32.65;21.27;;;9.00;99.90;;;;;;4974023;28;20311;-93
2022/11/09 09:05:07;;;;;;;32.42;22.40;;;9.00;99.90;;;;;;4974500;28;20216;-92
2022/11/09 09:07:37;;;;;;;29.75;20.70;;;8.90;99.90;;;;;;4974432;28;20209;-93
2022/11/09 09:10:07;;;;;;;24.50;20.00;;;9.00;99.90;;;;;;4974337;28;20263;-93
2022/11/09 09:12:36;;;;;;;33.10;21.55;;;8.90;99.90;;;;;;4974139;28;20212;-93
2022/11/09 09:15:05;;;;;;;31.50;22.38;;;9.00;99.90;;;;;;4973843;28;20216;-93
2022/11/09 09:17:34;;;;;;;30.38;20.33;;;9.00;99.90;;;;;;4974038;28;20222;-93
2022/11/09 09:20:03;;;;;;;28.80;21.70;;;9.00;99.90;;;;;;4974299;28;20204;-92
2022/11/09 09:22:32;;;;;;;27.75;20.52;;;9.00;99.90;;;;;;4973895;28;20220;-93
2022/11/09 09:25:02;;;;;;;32.42;22.48;;;9.00;99.90;;;;;;4974102;28;20209;-93
2022/11/09 09:27:30;;;;;;;31.67;20.40;;;9.00;99.90;;;;;;4973472;28;20209;-93
2022/11/09 09:29:59;;;;;;;30.65;21.30;;;8.90;99.90;;;;;;4973889;28;20235;-93
2022/11/09 09:32:28;;;;;;;29.27;21.33;;;8.90;99.90;;;;;;4973767;28;20232;-94
2022/11/09 09:34:57;;;;;;;26.65;21.95;;;9.00;99.90;;;;;;4974174;28;20219;-93
2022/11/09 09:37:25;;;;;;;26.90;20.15;;;8.90;99.90;;;;;;4973948;28;20208;-92
2022/11/09 09:39:53;;;;;;;32.50;22.77;;;8.90;99.90;;;;;;4974439;28;20300;-94
2022/11/09 09:42:28;;;;;;;28.30;21.38;;;8.90;99.90;;;;;;4974076;28;20212;-93
2022/11/09 09:45:01;;;;;;;34.40;23.02;;;9.00;99.90;;;;;;4974093;28;20212;-93
2022/11/09 09:47:42;;;;;;;24.83;21.33;;;9.00;99.90;;;;;;4973011;28;20213;-93
2022/11/09 09:50:13;;;;;;;34.78;19.73;;;9.10;99.90;;;;;;4973554;28;20212;-93
2022/11/09 09:52:48;;;;;;;27.73;21.65;;;9.10;99.90;;;;;;4973641;28;20213;-92
2022/11/09 09:55:39;;;;;;;28.35;21.05;;;9.10;99.90;;;;;;4973626;28;20208;-92
2022/11/09 09:58:13;;;;;;;34.42;22.98;;;9.10;99.90;;;;;;4974016;28;20216;-93
2022/11/09 10:00:42;;;;;;;39.70;22.95;;;9.10;99.90;;;;;;4974143;28;20216;-93
2022/11/09 10:03:17;;;;;;;26.10;20.98;;;9.10;99.90;;;;;;4976603;28;20237;-94
2022/11/09 10:05:57;;;;;;;25.80;19.33;;;9.10;99.90;;;;;;4974293;28;20219;-94
2022/11/09 10:08:35;;;;;;;29.02;18.63;;;9.00;99.90;;;;;;4973708;28;20216;-93
2022/11/09 10:11:14;;;;;;;32.00;18.95;;;9.10;99.90;;;;;;4975214;28;20225;-94
2022/11/09 10:14:07;;;;;;;29.70;19.30;;;9.10;99.90;;;;;;4975589;28;20232;-92
2022/11/09 10:16:41;;;;;;;31.13;18.70;;;9.10;99.90;;;;;;4975518;28;20216;-93
2022/11/09 10:19:25;;;;;;;27.77;21.30;;;9.20;99.90;;;;;;4976004;28;20211;-93
2022/11/09 10:21:58;;;;;;;33.47;22.55;;;9.10;99.90;;;;;;4975319;28;20210;-93
2022/11/09 10:24:37;;;;;;;38.08;22.02;;;9.10;99.90;;;;;;4975661;28;20235;-93
2022/11/09 10:27:28;;;;;;;33.90;20.83;;;9.10;99.90;;;;;;4974369;28;20211;-94
2022/11/09 10:30:00;;;;;;;29.67;22.35;;;9.20;99.90;;;;;;4975116;28;20299;-93
2022/11/09 10:32:32;;;;;;;30.08;20.40;;;9.10;99.90;;;;;;4974339;28;20232;-93
2022/11/09 10:35:05;;;;;;;28.08;19.60;;;9.10;99.90;;;;;;4975385;28;20209;-94
2022/11/09 10:37:38;;;;;;;27.42;20.40;;;9.10;99.90;;;;;;4974804;28;20208;-93
2022/11/09 10:40:17;;;;;;;23.75;19.23;;;9.10;99.90;;;;;;4974937;28;20212;-93
2022/11/09 10:42:49;;;;;;;23.10;17.17;;;9.00;99.90;;;;;;4974998;28;20218;-93
2022/11/09 10:45:27;;;;;;;24.98;18.63;;;9.10;99.90;;;;;;4975079;28;20204;-94
2022/11/09 10:47:56;;;;;;;23.40;17.55;;;9.20;99.90;;;;;;4974601;28;20208;-94
2022/11/09 10:50:31;;;;;;;25.95;17.88;;;9.20;99.90;;;;;;4974647;28;20212;-92
2022/11/09 10:53:12;;;;;;;22.23;17.33;;;9.20;99.90;;;;;;4974373;28;20331;-94
2022/11/09 10:55:51;;;;;;;36.88;19.13;;;9.30;99.90;;;;;;4975178;28;20203;-93
2022/11/09 10:58:31;;;;;;;23.50;18.65;;;9.30;99.90;;;;;;4975159;28;20220;-93
2022/11/09 11:01:04;;;;;;;20.35;17.00;;;9.40;99.90;;;;;;4974543;28;20208;-93
2022/11/09 11:03:35;;;;;;;27.55;20.30;;;9.40;99.90;;;;;;4974183;28;20240;-94
2022/11/09 11:06:06;;;;;;;21.17;17.20;;;9.30;99.90;;;;;;4974372;28;20215;-94
2022/11/09 11:08:38;;;;;;;23.85;16.98;;;9.40;99.90;;;;;;4974347;28;20208;-94
2022/11/09 11:11:21;;;;;;;19.67;15.55;;;9.40;99.90;;;;;;4974659;28;20231;-92
2022/11/09 11:14:14;;;;;;;28.55;17.27;;;9.40;99.90;;;;;;4974432;28;20228;-94
2022/11/09 11:16:51;;;;;;;26.05;15.23;;;9.40;99.90;;;;;;4974518;28;20259;-93
2022/11/09 11:19:29;;;;;;;20.55;16.60;;;9.40;99.90;;;;;;4974498;28;20204;-93
2022/11/09 11:22:18;;;;;;;19.75;14.63;;;9.50;99.90;;;;;;4974467;28;20204;-94
2022/11/09 11:24:52;;;;;;;19.88;16.15;;;9.50;99.90;;;;;;4974631;28;20236;-93
2022/11/09 11:27:27;;;;;;;26.80;16.40;;;9.50;99.90;;;;;;4974139;28;20207;-93
2022/11/09 11:30:04;;;;;;;21.95;16.00;;;9.60;99.90;;;;;;4974365;28;20208;-93
2022/11/09 11:32:33;;;;;;;27.25;18.77;;;9.60;99.90;;;;;;4973687;28;20255;-94
2022/11/09 11:35:05;;;;;;;26.65;20.25;;;9.60;99.90;;;;;;4974136;28;20213;-93
2022/11/09 11:37:46;;;;;;;35.33;19.15;;;9.70;99.90;;;;;;4974207;28;20211;-93
2022/11/09 11:40:20;;;;;;;20.58;16.65;;;9.70;99.90;;;;;;4974246;28;20221;-94
2022/11/09 11:43:28;;;;;;;18.55;14.77;;;9.80;99.90;;;;;;4974058;28;20208;-94
2022/11/09 11:46:07;;;;;;;19.45;16.67;;;9.80;99.90;;;;;;4973902;28;20208;-93
2022/11/09 11:49:09;;;;;;;25.15;16.98;;;9.70;99.90;;;;;;4973738;28;20218;-94
2022/11/09 11:51:45;;;;;;;22.13;15.57;;;9.70;99.90;;;;;;4974383;28;20319;-93
2022/11/09 11:54:21;;;;;;;20.60;16.88;;;9.70;99.90;;;;;;4974125;28;20228;-94
2022/11/09 11:56:59;;;;;;;20.15;16.70;;;9.80;99.90;;;;;;4976987;28;20222;-93
2022/11/09 11:59:46;;;;;;;28.10;17.63;;;9.70;99.90;;;;;;4977635;28;20208;-93
2022/11/09 12:02:48;;;;;;;19.30;16.30;;;9.70;99.90;;;;;;4973742;28;20208;-93
2022/11/09 12:05:36;;;;;;;22.30;17.10;;;9.70;99.90;;;;;;4971937;28;20265;-94
2022/11/09 12:08:12;;;;;;;22.58;16.52;;;9.70;99.90;;;;;;4973866;28;20205;-92
2022/11/09 12:10:51;;;;;;;19.60;15.23;;;9.70;99.90;;;;;;4974283;28;20258;-93
2022/11/09 12:13:45;;;;;;;18.30;16.40;;;9.80;99.90;;;;;;4973833;28;20232;-91
2022/11/09 12:16:26;;;;;;;18.15;15.15;;;9.70;99.90;;;;;;4973712;28;20208;-93
2022/11/09 12:19:04;;;;;;;21.65;16.27;;;9.70;99.90;;;;;;4973643;28;20212;-92
2022/11/09 12:21:41;;;;;;;20.33;15.95;;;9.60;99.90;;;;;;4978623;28;20204;-93
2022/11/09 12:24:21;;;;;;;20.23;16.13;;;9.60;99.90;;;;;;4974564;28;20228;-93
2022/11/09 12:27:08;;;;;;;19.88;15.90;;;9.60;99.90;;;;;;4973618;28;20218;-93
2022/11/09 12:30:02;;;;;;;21.30;15.07;;;9.70;99.90;;;;;;4973109;28;20204;-93
2022/11/09 12:32:37;;;;;;;21.65;17.63;;;9.70;99.90;;;;;;4973466;28;20220;-93
2022/11/09 12:35:22;;;;;;;22.33;15.43;;;9.60;99.90;;;;;;4973484;28;20206;-92
2022/11/09 12:37:58;;;;;;;21.25;15.85;;;9.60;99.90;;;;;;4973137;28;20204;-93
2022/11/09 12:40:30;;;;;;;21.13;15.68;;;9.60;99.90;;;;;;4973087;28;20204;-92
2022/11/09 12:43:03;;;;;;;26.13;18.00;;;9.60;99.90;;;;;;4973488;28;20228;-93
2022/11/09 12:45:34;;;;;;;20.88;16.67;;;9.60;99.90;;;;;;4973855;28;20213;-94
2022/11/09 12:48:09;;;;;;;22.23;17.92;;;9.70;99.90;;;;;;4972694;28;20209;-93
2022/11/09 12:50:38;;;;;;;22.83;19.27;;;9.80;99.90;;;;;;4975852;28;20210;-93
2022/11/09 12:53:09;;;;;;;37.83;19.95;;;9.80;99.90;;;;;;4976967;28;20232;-94
2022/11/09 12:55:44;;;;;;;21.02;17.23;;;9.80;99.90;;;;;;4977041;28;20219;-93
2022/11/09 12:58:24;;;;;;;41.42;18.90;;;9.80;99.90;;;;;;4977207;28;20215;-93
2022/11/09 13:00:55;;;;;;;36.53;18.83;;;9.80;99.90;;;;;;4976692;28;20204;-93